spaceshipsandlaserbeams.com alexa rank chart, spaceshipsandlaserbeams.com alexa rank daily changes

spaceshipsandlaserbeams.com alexa rank chart, spaceshipsandlaserbeams.com alexa rank daily changes

spaceshipsandlaserbeams.com
Actual rank:
132 088

RANK HISTORY

Date Rank Diff
2018/02/18 132 088 -41 049
2018/02/17 173 137 -64 260
2018/02/16 237 397 -324 100
2018/02/15 561 497 +413 965
2018/02/14 147 532 -151 050
2018/02/13 298 582 +139 014
2018/02/12 159 568 +26 813
2018/02/11 132 755 -129 520
2018/02/10 262 275 +1 447
2018/02/09 260 828 +67 935
2018/02/08 192 893 -23 280
2018/02/07 216 173 +65 062
2018/02/06 151 111 -29 315
2018/02/05 180 426 +8 521
2018/02/04 171 905 -18 746
2018/02/03 190 651 +124 473
2018/02/02 66 178 -34 071
2018/02/01 100 249 -275 185
2018/01/31 375 434 +212 774
2018/01/30 162 660 +850
2018/01/29 161 810 +402
2018/01/28 161 408 -501
2018/01/27 161 909 +5 672
2018/01/26 156 237 +5 744
2018/01/25 150 493 +1 795
2018/01/24 148 698 +915
2018/01/23 147 783 +163
2018/01/22 147 620 +7 502
2018/01/21 140 118 +7 041
2018/01/20 133 077 +3 656
2018/01/19 129 421 +2 539
2018/01/18 126 882 -809
2018/01/17 127 691 -217
2018/01/16 127 908 +5 611
2018/01/15 122 297 +728
2018/01/14 121 569 -938
2018/01/13 122 507 +4 576
2018/01/12 117 931 +711
2018/01/11 117 220 +168
2018/01/10 117 052 +1 404
2018/01/09 115 648 +1 261
2018/01/08 114 387 +3 019
2018/01/07 111 368 +1 715
2018/01/06 109 653 +2 635
2018/01/05 107 018 +630
2018/01/04 106 388 -454
2018/01/03 106 842 -253
2018/01/02 107 095 +2 204
2018/01/01 104 891 -790
2017/12/31 105 681 +1 692
2017/12/30 103 989 +265
2017/12/29 103 724 +2 247
2017/12/28 101 477 +700
2017/12/27 100 777 -2 770
2017/12/26 103 547 -775
2017/12/25 104 322 +21
2017/12/24 104 301 -1 240
2017/12/23 105 541 -1 006
2017/12/22 106 547 -2 982
2017/12/21 109 529 -4 227
2017/12/20 113 756

WIDGET FOR YOUR SITE

DOMAINS WITH THE NEAREST RANK

Domain Rank
ufiling.co.za 132 083
satsis.info 132 084
learntocodewith.me 132 085
pdfkul.com 132 086
unios.hr 132 087
spaceshipsandlaserbeams.com 132 088
bankwindhoek.com.na 132 089
factporn.com 132 090
roadsnacks.net 132 091
countrystudies.us 132 092
nbuv.gov.ua 132 093

DOMAINS WITH THE NEAREST RANK BY TLD .com

Domain Rank
recon-company.com 132 078
actionvfx.com 132 079
gamesatis.com 132 080
produnia.com 132 082
pdfkul.com 132 086
spaceshipsandlaserbeams.com 132 088
factporn.com 132 090
checkoutmyink.com 132 094
becomingminimalist.com 132 096
teachpe.com 132 097
henner.com 132 100